NO-0012 weather

Frosta Airfield
Frosta, Nord-Trøndelag, Norway

Public forecast

Using degrees Celsius for public forecast. Weather courtesy of forecast.io.

METAR (pilot weather report)

Closest report is Trondheim Airport Værnes, 8.9 nm (16.4 km) SE. Retrieved 2019/07/18 00:20 UTC (4 minutes ago):

ENVA 180020Z 09005KT CAVOK 12/10 Q1010 RMK WIND 670FT 12004KT

TAF (pilot weather forecast)

Forecast is more than 12 hours old.

Closest forecast is Trondheim Airport Værnes, 8.9 nm (16.4 km) SE. Retrieved 2019/07/17 00:57 UTC (23 hours ago):

TAF ENVA 172300Z 1800/1824 12007KT 9999 SCT030 BECMG 1808/1810 26010KT PROB30 TEMPO 1813/1821 TSRA BKN025CB BECMG 1817/1819 12007KT